sensor_id;sensor_type;location;lat;lon;timestamp;pressure;altitude;pressure_sealevel;temperature;humidity
59443;BME280;45247;47.466;19.004;2023-07-31T18:40:25;99448.97;;;20.63;61.30
59443;BME280;45247;47.466;19.004;2023-07-31T18:42:54;99461.03;;;20.50;62.09
59443;BME280;45247;47.466;19.004;2023-07-31T18:45:23;99456.63;;;20.41;63.33
59443;BME280;45247;47.466;19.004;2023-07-31T18:47:53;99457.63;;;20.32;63.80
59443;BME280;45247;47.466;19.004;2023-07-31T18:50:21;99455.63;;;20.26;64.44
59443;BME280;45247;47.466;19.004;2023-07-31T18:52:50;99453.56;;;20.20;65.24
59443;BME280;45247;47.466;19.004;2023-07-31T18:55:19;99452.72;;;20.11;65.88
59443;BME280;45247;47.466;19.004;2023-07-31T18:57:49;99451.69;;;20.04;66.27
59443;BME280;45247;47.466;19.004;2023-07-31T19:00:18;99451.84;;;20.02;66.69
59443;BME280;45247;47.466;19.004;2023-07-31T19:02:46;99461.06;;;20.08;67.42
59443;BME280;45247;47.466;19.004;2023-07-31T19:05:15;99470.41;;;19.88;68.62
59443;BME280;45247;47.466;19.004;2023-07-31T19:07:45;99470.16;;;19.73;69.88
59443;BME280;45247;47.466;19.004;2023-07-31T19:10:14;99472.94;;;19.63;70.23
59443;BME280;45247;47.466;19.004;2023-07-31T19:12:43;99471.03;;;19.56;70.54
59443;BME280;45247;47.466;19.004;2023-07-31T19:15:13;99474.19;;;19.51;71.02
59443;BME280;45247;47.466;19.004;2023-07-31T19:17:42;99466.94;;;19.43;72.14
59443;BME280;45247;47.466;19.004;2023-07-31T19:20:13;99475.44;;;19.39;73.75
59443;BME280;45247;47.466;19.004;2023-07-31T19:22:42;99475.31;;;19.40;73.92
59443;BME280;45247;47.466;19.004;2023-07-31T19:25:11;99470.94;;;19.39;74.38
59443;BME280;45247;47.466;19.004;2023-07-31T19:27:39;99470.88;;;19.31;76.40
59443;BME280;45247;47.466;19.004;2023-07-31T19:30:10;99467.72;;;19.27;76.79
59443;BME280;45247;47.466;19.004;2023-07-31T19:32:40;99468.84;;;19.25;77.26
59443;BME280;45247;47.466;19.004;2023-07-31T19:35:08;99462.78;;;19.15;78.89
59443;BME280;45247;47.466;19.004;2023-07-31T19:37:37;99469.56;;;19.09;80.07
59443;BME280;45247;47.466;19.004;2023-07-31T19:40:06;99466.06;;;19.09;80.69
59443;BME280;45247;47.466;19.004;2023-07-31T19:42:34;99462.66;;;18.98;82.11
59443;BME280;45247;47.466;19.004;2023-07-31T19:45:03;99463.41;;;18.91;82.67
59443;BME280;45247;47.466;19.004;2023-07-31T19:47:32;99466.41;;;18.88;83.63
59443;BME280;45247;47.466;19.004;2023-07-31T19:50:02;99465.50;;;18.79;84.92
59443;BME280;45247;47.466;19.004;2023-07-31T19:52:31;99471.63;;;18.71;86.83
59443;BME280;45247;47.466;19.004;2023-07-31T19:55:00;99467.84;;;18.64;87.69
59443;BME280;45247;47.466;19.004;2023-07-31T19:57:28;99471.66;;;18.62;88.46
59443;BME280;45247;47.466;19.004;2023-07-31T19:59:56;99463.88;;;18.50;89.15
59443;BME280;45247;47.466;19.004;2023-07-31T20:02:25;99464.47;;;18.44;90.37
59443;BME280;45247;47.466;19.004;2023-07-31T20:04:53;99461.44;;;18.39;91.83
59443;BME280;45247;47.466;19.004;2023-07-31T20:07:23;99465.41;;;18.35;93.55
59443;BME280;45247;47.466;19.004;2023-07-31T20:09:53;99466.00;;;18.29;94.27
59443;BME280;45247;47.466;19.004;2023-07-31T20:12:23;99453.69;;;18.18;95.80
59443;BME280;45247;47.466;19.004;2023-07-31T20:14:52;99455.44;;;18.10;94.95
59443;BME280;45247;47.466;19.004;2023-07-31T20:17:22;99452.38;;;18.05;94.78
59443;BME280;45247;47.466;19.004;2023-07-31T20:19:51;99447.34;;;18.01;94.83
59443;BME280;45247;47.466;19.004;2023-07-31T20:22:19;99445.97;;;17.97;95.38
59443;BME280;45247;47.466;19.004;2023-07-31T20:24:48;99445.13;;;17.97;95.59
59443;BME280;45247;47.466;19.004;2023-07-31T20:27:17;99443.75;;;17.93;98.01
59443;BME280;45247;47.466;19.004;2023-07-31T20:29:46;99441.78;;;17.95;97.89
59443;BME280;45247;47.466;19.004;2023-07-31T20:32:14;99445.38;;;18.04;96.58
59443;BME280;45247;47.466;19.004;2023-07-31T20:34:43;99449.53;;;18.16;94.38
59443;BME280;45247;47.466;19.004;2023-07-31T20:37:11;99439.06;;;18.22;93.49
59443;BME280;45247;47.466;19.004;2023-07-31T20:39:40;99442.94;;;18.28;92.06
59443;BME280;45247;47.466;19.004;2023-07-31T20:42:09;99439.97;;;18.31;91.36
59443;BME280;45247;47.466;19.004;2023-07-31T20:44:41;99438.69;;;18.35;91.25
59443;BME280;45247;47.466;19.004;2023-07-31T20:47:09;99439.91;;;18.41;89.79
59443;BME280;45247;47.466;19.004;2023-07-31T20:49:37;99437.09;;;18.42;88.99
59443;BME280;45247;47.466;19.004;2023-07-31T20:52:06;99435.16;;;18.52;84.25
59443;BME280;45247;47.466;19.004;2023-07-31T20:54:34;99439.22;;;18.74;79.49
59443;BME280;45247;47.466;19.004;2023-07-31T20:57:02;99436.06;;;18.97;76.04
59443;BME280;45247;47.466;19.004;2023-07-31T20:59:32;99431.59;;;19.06;73.95
59443;BME280;45247;47.466;19.004;2023-07-31T21:02:01;99422.84;;;19.21;72.21
59443;BME280;45247;47.466;19.004;2023-07-31T21:04:29;99428.78;;;19.33;70.38
59443;BME280;45247;47.466;19.004;2023-07-31T21:06:57;99427.28;;;19.39;69.03
59443;BME280;45247;47.466;19.004;2023-07-31T21:09:24;99415.03;;;19.28;69.62
59443;BME280;45247;47.466;19.004;2023-07-31T21:11:52;99416.31;;;19.16;70.78
59443;BME280;45247;47.466;19.004;2023-07-31T21:14:20;99412.22;;;19.04;72.94
59443;BME280;45247;47.466;19.004;2023-07-31T21:16:50;99410.22;;;19.06;70.40
59443;BME280;45247;47.466;19.004;2023-07-31T21:19:17;99408.00;;;19.27;68.04
59443;BME280;45247;47.466;19.004;2023-07-31T21:21:45;99408.47;;;19.57;66.07
59443;BME280;45247;47.466;19.004;2023-07-31T21:24:13;99408.63;;;19.89;63.58
59443;BME280;45247;47.466;19.004;2023-07-31T21:26:41;99410.34;;;19.98;63.15
59443;BME280;45247;47.466;19.004;2023-07-31T21:29:10;99410.88;;;20.10;62.06
59443;BME280;45247;47.466;19.004;2023-07-31T21:31:38;99418.41;;;20.15;61.41
59443;BME280;45247;47.466;19.004;2023-07-31T21:34:07;99416.75;;;20.14;61.73
59443;BME280;45247;47.466;19.004;2023-07-31T21:36:35;99415.19;;;20.03;62.36
59443;BME280;45247;47.466;19.004;2023-07-31T21:39:03;99416.66;;;19.89;63.77
59443;BME280;45247;47.466;19.004;2023-07-31T21:41:31;99421.09;;;19.64;69.77
59443;BME280;45247;47.466;19.004;2023-07-31T21:43:59;99419.84;;;19.50;71.93
59443;BME280;45247;47.466;19.004;2023-07-31T21:46:27;99422.41;;;19.34;72.80
59443;BME280;45247;47.466;19.004;2023-07-31T21:48:55;99421.66;;;19.16;76.92
59443;BME280;45247;47.466;19.004;2023-07-31T21:51:25;99421.25;;;19.02;79.63
59443;BME280;45247;47.466;19.004;2023-07-31T21:53:53;99424.78;;;18.85;83.30
59443;BME280;45247;47.466;19.004;2023-07-31T21:56:21;99421.97;;;18.69;85.12
59443;BME280;45247;47.466;19.004;2023-07-31T21:58:49;99419.13;;;18.52;87.61
59443;BME280;45247;47.466;19.004;2023-07-31T22:01:17;99411.75;;;18.46;89.34
59443;BME280;45247;47.466;19.004;2023-07-31T22:03:45;99407.94;;;18.31;91.03
59443;BME280;45247;47.466;19.004;2023-07-31T22:06:13;99410.50;;;18.23;92.56
59443;BME280;45247;47.466;19.004;2023-07-31T22:08:43;99416.59;;;18.15;94.57
59443;BME280;45247;47.466;19.004;2023-07-31T22:11:11;99413.63;;;18.00;96.93
59443;BME280;45247;47.466;19.004;2023-07-31T22:13:41;99410.88;;;17.92;100.00
59443;BME280;45247;47.466;19.004;2023-07-31T22:16:09;99403.94;;;17.82;100.00
59443;BME280;45247;47.466;19.004;2023-07-31T22:18:38;99407.59;;;17.71;100.00
59443;BME280;45247;47.466;19.004;2023-07-31T22:21:06;99407.66;;;17.61;100.00
59443;BME280;45247;47.466;19.004;2023-07-31T22:23:34;99408.53;;;17.52;100.00
59443;BME280;45247;47.466;19.004;2023-07-31T22:26:03;99405.22;;;17.40;100.00
59443;BME280;45247;47.466;19.004;2023-07-31T22:28:31;99407.63;;;17.34;100.00
59443;BME280;45247;47.466;19.004;2023-07-31T22:30:59;99393.50;;;17.23;100.00
59443;BME280;45247;47.466;19.004;2023-07-31T22:33:27;99391.75;;;17.05;100.00
59443;BME280;45247;47.466;19.004;2023-07-31T22:35:55;99391.78;;;16.85;100.00
59443;BME280;45247;47.466;19.004;2023-07-31T22:38:23;99394.75;;;16.72;100.00
59443;BME280;45247;47.466;19.004;2023-07-31T22:40:51;99396.00;;;16.59;100.00
59443;BME280;45247;47.466;19.004;2023-07-31T22:43:20;99393.88;;;16.52;100.00
59443;BME280;45247;47.466;19.004;2023-07-31T22:45:48;99391.38;;;16.51;100.00
59443;BME280;45247;47.466;19.004;2023-07-31T22:48:16;99395.03;;;16.50;100.00
59443;BME280;45247;47.466;19.004;2023-07-31T22:50:44;99397.81;;;16.48;100.00
59443;BME280;45247;47.466;19.004;2023-07-31T22:53:12;99390.81;;;16.47;100.00
59443;BME280;45247;47.466;19.004;2023-07-31T22:55:40;99387.47;;;16.45;100.00
59443;BME280;45247;47.466;19.004;2023-07-31T22:58:08;99383.66;;;16.38;100.00
59443;BME280;45247;47.466;19.004;2023-07-31T23:00:38;99379.88;;;16.31;100.00
59443;BME280;45247;47.466;19.004;2023-07-31T23:03:06;99385.50;;;16.28;100.00
59443;BME280;45247;47.466;19.004;2023-07-31T23:05:35;99385.78;;;16.25;100.00
59443;BME280;45247;47.466;19.004;2023-07-31T23:08:03;99384.94;;;16.24;100.00
59443;BME280;45247;47.466;19.004;2023-07-31T23:10:31;99390.94;;;16.17;100.00
59443;BME280;45247;47.466;19.004;2023-07-31T23:13:00;99375.97;;;16.06;100.00
59443;BME280;45247;47.466;19.004;2023-07-31T23:15:28;99381.25;;;15.96;100.00
59443;BME280;45247;47.466;19.004;2023-07-31T23:17:57;99382.41;;;15.94;100.00
59443;BME280;45247;47.466;19.004;2023-07-31T23:20:25;99377.34;;;15.91;100.00
59443;BME280;45247;47.466;19.004;2023-07-31T23:22:53;99368.09;;;15.85;100.00
59443;BME280;45247;47.466;19.004;2023-07-31T23:25:21;99366.38;;;15.84;100.00
59443;BME280;45247;47.466;19.004;2023-07-31T23:27:49;99366.53;;;15.83;100.00
59443;BME280;45247;47.466;19.004;2023-07-31T23:30:17;99366.69;;;15.81;100.00
59443;BME280;45247;47.466;19.004;2023-07-31T23:32:45;99353.50;;;15.80;100.00
59443;BME280;45247;47.466;19.004;2023-07-31T23:35:14;99347.22;;;15.81;100.00
59443;BME280;45247;47.466;19.004;2023-07-31T23:37:42;99346.25;;;15.82;100.00
59443;BME280;45247;47.466;19.004;2023-07-31T23:40:11;99338.69;;;15.77;100.00
59443;BME280;45247;47.466;19.004;2023-07-31T23:42:40;99339.66;;;15.76;100.00
59443;BME280;45247;47.466;19.004;2023-07-31T23:45:08;99346.50;;;15.69;100.00
59443;BME280;45247;47.466;19.004;2023-07-31T23:47:37;99339.03;;;15.63;100.00
59443;BME280;45247;47.466;19.004;2023-07-31T23:50:06;99336.94;;;15.57;100.00
59443;BME280;45247;47.466;19.004;2023-07-31T23:52:36;99336.09;;;15.56;100.00
59443;BME280;45247;47.466;19.004;2023-07-31T23:55:04;99334.13;;;15.58;100.00
59443;BME280;45247;47.466;19.004;2023-07-31T23:57:32;99333.44;;;15.56;100.00
